createdAt,value
2023-05-23T00:02:08.227Z,102059.63
2023-05-23T00:04:36.817Z,102071.47
2023-05-23T00:07:04.460Z,102075.16
2023-05-23T00:09:31.087Z,102075.16
2023-05-23T00:11:57.856Z,102067.06
2023-05-23T00:14:24.656Z,102068.88
2023-05-23T00:16:51.824Z,102077.88
2023-05-23T00:19:18.437Z,102081.56
2023-05-23T00:21:50.938Z,102083.41
2023-05-23T00:24:18.883Z,102082.56
2023-05-23T00:26:46.578Z,102079.69
2023-05-23T00:29:16.790Z,102085.28
2023-05-23T00:31:46.573Z,102082.72
2023-05-23T00:34:14.799Z,102088.81
2023-05-23T00:36:43.654Z,102086.28
2023-05-23T00:39:18.967Z,102091.69
2023-05-23T00:41:49.162Z,102093.53
2023-05-23T00:44:17.318Z,102096.25
2023-05-23T00:46:47.524Z,102091.81
2023-05-23T00:49:14.513Z,102095.53
2023-05-23T00:51:43.127Z,102103.63
2023-05-23T00:54:09.984Z,102093.00
2023-05-23T00:56:38.664Z,102098.53
2023-05-23T00:59:06.463Z,102099.38
2023-05-23T01:01:33.534Z,102100.38
2023-05-23T01:04:00.287Z,102098.69
2023-05-23T01:06:30.559Z,102092.44
2023-05-23T01:08:57.195Z,102091.59
2023-05-23T01:11:33.145Z,102105.25
2023-05-23T01:14:24.021Z,102100.84
2023-05-23T01:17:01.633Z,102113.34
2023-05-23T01:19:40.747Z,102117.06
2023-05-23T01:22:16.799Z,102100.00
2023-05-23T01:25:08.106Z,102110.09
2023-05-23T01:27:53.057Z,102110.09
2023-05-23T01:30:21.129Z,102110.97
2023-05-23T01:32:50.782Z,102099.28
2023-05-23T01:35:29.184Z,102117.50
2023-05-23T01:37:56.326Z,102113.13
2023-05-23T01:40:24.149Z,102110.41
2023-05-23T01:42:51.927Z,102112.28
2023-05-23T01:45:18.787Z,102118.66
2023-05-23T01:47:49.207Z,102115.09
2023-05-23T01:50:16.932Z,102122.38
2023-05-23T01:52:43.712Z,102114.44
2023-05-23T01:55:11.933Z,102118.81
2023-05-23T01:57:39.012Z,102122.53
2023-05-23T02:00:07.260Z,102118.97
2023-05-23T02:02:34.446Z,102119.97
2023-05-23T02:05:01.071Z,102117.25
2023-05-23T02:07:27.865Z,102121.81
2023-05-23T02:09:56.364Z,102112.03
2023-05-23T02:12:23.258Z,102109.31
2023-05-23T02:14:52.227Z,102109.31
2023-05-23T02:17:18.887Z,102108.47
2023-05-23T02:19:45.501Z,102108.59
2023-05-23T02:22:12.032Z,102117.59
2023-05-23T02:24:38.607Z,102116.72
2023-05-23T02:27:05.706Z,102116.72
2023-05-23T02:29:32.457Z,102129.38
2023-05-23T02:31:59.239Z,102133.06
2023-05-23T02:34:26.285Z,102137.63
2023-05-23T02:36:52.836Z,102132.22
2023-05-23T02:39:19.372Z,102143.03
2023-05-23T02:41:45.899Z,102134.09
2023-05-23T02:44:12.462Z,102137.78
2023-05-23T02:46:39.117Z,102139.63
2023-05-23T02:49:05.771Z,102142.31
2023-05-23T02:51:32.626Z,102146.03
2023-05-23T02:53:59.187Z,102157.69
2023-05-23T02:56:26.948Z,102147.88
2023-05-23T02:58:53.549Z,102149.88
2023-05-23T03:01:20.264Z,102152.56
2023-05-23T03:03:47.046Z,102151.72
2023-05-23T03:06:14.544Z,102158.13
2023-05-23T03:08:42.004Z,102155.44
2023-05-23T03:11:08.689Z,102159.13
2023-05-23T03:13:35.837Z,102152.88
2023-05-23T03:16:02.748Z,102151.03
2023-05-23T03:18:29.349Z,102148.47
2023-05-23T03:20:55.933Z,102153.00
2023-05-23T03:23:22.490Z,102150.31
2023-05-23T03:25:49.395Z,102155.72
2023-05-23T03:28:16.009Z,102166.69
2023-05-23T03:30:42.596Z,102164.94
2023-05-23T03:33:09.423Z,102162.25
2023-05-23T03:35:36.048Z,102170.34
2023-05-23T03:38:02.629Z,102167.78
2023-05-23T03:40:29.197Z,102161.53
2023-05-23T03:43:13.825Z,102167.09
2023-05-23T03:45:40.777Z,102167.94
2023-05-23T03:48:07.684Z,102175.19
2023-05-23T03:50:34.414Z,102183.28
2023-05-23T03:53:00.990Z,102184.31
2023-05-23T03:55:27.614Z,102185.28
2023-05-23T03:57:54.327Z,102188.13
2023-05-23T04:00:20.959Z,102190.00
2023-05-23T04:02:47.718Z,102191.00
2023-05-23T04:05:14.408Z,102196.25
2023-05-23T04:07:41.809Z,102198.22
2023-05-23T04:10:09.406Z,102202.78
2023-05-23T04:12:36.719Z,102205.63
2023-05-23T04:15:04.029Z,102212.88
2023-05-23T04:17:31.276Z,102212.03
2023-05-23T04:19:58.207Z,102220.25
2023-05-23T04:22:24.925Z,102220.25
2023-05-23T04:24:51.640Z,102226.66
2023-05-23T04:27:18.198Z,102228.69
2023-05-23T04:29:46.860Z,102225.97
2023-05-23T04:32:14.753Z,102231.38
2023-05-23T04:34:41.339Z,102222.56
2023-05-23T04:37:09.241Z,102234.22
2023-05-23T04:39:35.850Z,102227.09
2023-05-23T04:42:02.579Z,102223.56
2023-05-23T04:44:30.249Z,102230.81
2023-05-23T04:46:57.255Z,102233.50
2023-05-23T04:49:23.889Z,102241.63
2023-05-23T04:51:51.159Z,102249.72
2023-05-23T04:54:17.747Z,102246.16
2023-05-23T04:56:44.416Z,102256.09
2023-05-23T04:59:11.539Z,102249.84
2023-05-23T05:01:40.892Z,102256.25
2023-05-23T05:04:07.849Z,102255.25
2023-05-23T05:06:34.669Z,102263.34
2023-05-23T05:09:01.282Z,102267.88
2023-05-23T05:11:28.632Z,102270.59
2023-05-23T05:13:55.363Z,102277.84
2023-05-23T05:16:22.351Z,102282.22
2023-05-23T05:18:48.950Z,102284.94
2023-05-23T05:21:15.490Z,102283.97
2023-05-23T05:23:42.091Z,102284.81
2023-05-23T05:26:08.730Z,102293.75
2023-05-23T05:28:35.336Z,102299.16
2023-05-23T05:31:05.224Z,102297.31
2023-05-23T05:33:36.084Z,102298.16
2023-05-23T05:36:03.847Z,102308.94
2023-05-23T05:38:30.688Z,102303.53
2023-05-23T05:40:57.266Z,102309.78
2023-05-23T05:43:23.969Z,102312.50
2023-05-23T05:45:50.694Z,102319.75
2023-05-23T05:48:17.643Z,102326.00
2023-05-23T05:50:47.205Z,102320.75
2023-05-23T05:53:14.251Z,102330.53
2023-05-23T05:55:41.046Z,102332.41
2023-05-23T05:58:07.676Z,102339.66
2023-05-23T06:00:42.135Z,102334.25
2023-05-23T06:03:09.314Z,102336.94
2023-05-23T06:05:37.584Z,102340.66
2023-05-23T06:08:04.878Z,102336.94
2023-05-23T06:10:31.500Z,102336.09
2023-05-23T06:12:59.712Z,102340.66
2023-05-23T06:15:26.451Z,102341.63
2023-05-23T06:17:53.204Z,102342.47
2023-05-23T06:20:19.834Z,102347.88
2023-05-23T06:22:46.647Z,102341.63
2023-05-23T06:25:14.862Z,102348.03
2023-05-23T06:27:41.431Z,102341.03
2023-05-23T06:30:08.569Z,102343.63
2023-05-23T06:32:35.214Z,102345.59
2023-05-23T06:35:01.863Z,102340.19
2023-05-23T06:37:28.465Z,102343.91
2023-05-23T06:39:55.115Z,102350.31
2023-05-23T06:42:21.689Z,102339.50
2023-05-23T06:44:48.298Z,102342.22
2023-05-23T06:47:14.898Z,102345.88
2023-05-23T06:49:41.488Z,102351.28
2023-05-23T06:52:08.045Z,102355.81
2023-05-23T06:54:34.579Z,102368.47
2023-05-23T06:57:01.223Z,102359.53
2023-05-23T06:59:27.797Z,102364.06
2023-05-23T07:01:54.350Z,102369.47
2023-05-23T07:04:20.880Z,102361.38
2023-05-23T07:06:47.596Z,102356.81
2023-05-23T07:09:14.202Z,102363.06
2023-05-23T07:11:41.241Z,102368.34
2023-05-23T07:14:07.971Z,102366.50
2023-05-23T07:16:34.665Z,102370.75
2023-05-23T07:19:03.026Z,102368.03
2023-05-23T07:21:29.648Z,102377.72
2023-05-23T07:23:56.206Z,102377.72
2023-05-23T07:26:22.785Z,102379.41
2023-05-23T07:28:50.384Z,102379.41
2023-05-23T07:31:17.130Z,102382.84
2023-05-23T07:33:43.739Z,102388.25
2023-05-23T07:36:11.517Z,102382.00
2023-05-23T07:38:38.086Z,102386.38
2023-05-23T07:41:11.569Z,102387.09
2023-05-23T07:43:39.251Z,102396.06
2023-05-23T07:46:05.905Z,102385.97
2023-05-23T07:48:32.530Z,102388.50
2023-05-23T07:50:59.256Z,102383.69
2023-05-23T07:53:26.392Z,102394.47
2023-05-23T07:55:53.019Z,102387.94
2023-05-23T07:58:19.585Z,102401.28
2023-05-23T08:00:46.214Z,102396.75
2023-05-23T08:03:13.449Z,102399.44
2023-05-23T08:05:40.293Z,102402.03
2023-05-23T08:08:06.885Z,102404.72
2023-05-23T08:10:33.585Z,102411.81
2023-05-23T08:13:01.004Z,102406.41
2023-05-23T08:15:28.852Z,102404.44
2023-05-23T08:17:57.261Z,102404.31
2023-05-23T08:20:30.874Z,102409.56
2023-05-23T08:23:01.896Z,102414.00
2023-05-23T08:25:32.426Z,102416.53
2023-05-23T08:28:00.345Z,102427.19
2023-05-23T08:30:28.142Z,102424.50
2023-05-23T08:32:56.024Z,102427.91
2023-05-23T08:35:23.072Z,102428.75
2023-05-23T08:37:50.836Z,102412.28
2023-05-23T08:40:22.613Z,102422.09
2023-05-23T08:42:50.678Z,102417.53
2023-05-23T08:45:18.231Z,102424.50
2023-05-23T08:47:46.570Z,102427.06
2023-05-23T08:50:16.080Z,102429.75
2023-05-23T08:53:03.624Z,102433.31
2023-05-23T08:55:32.552Z,102434.88
2023-05-23T08:58:03.600Z,102433.88
2023-05-23T09:00:30.316Z,102438.28
2023-05-23T09:02:57.738Z,102434.59
2023-05-23T09:05:26.390Z,102434.44
2023-05-23T09:07:53.189Z,102440.56
2023-05-23T09:10:22.790Z,102434.00
2023-05-23T09:12:49.878Z,102443.69
2023-05-23T09:15:17.388Z,102449.78
2023-05-23T09:17:45.432Z,102460.47
2023-05-23T09:20:15.420Z,102452.34
2023-05-23T09:22:47.481Z,102461.03
2023-05-23T09:25:14.470Z,102462.72
2023-05-23T09:27:42.171Z,102459.03
2023-05-23T09:30:10.728Z,102471.41
2023-05-23T09:32:37.526Z,102466.69
2023-05-23T09:35:06.364Z,102471.97
2023-05-23T09:37:35.724Z,102467.25
2023-05-23T09:40:10.453Z,102469.84
2023-05-23T09:42:44.079Z,102466.97
2023-05-23T09:45:11.846Z,102471.25
2023-05-23T09:47:38.521Z,102464.84
2023-05-23T09:50:05.777Z,102469.25
2023-05-23T09:52:38.762Z,102465.53
2023-05-23T09:55:06.789Z,102474.38
2023-05-23T09:57:40.563Z,102465.25
2023-05-23T10:00:14.121Z,102471.50
2023-05-23T10:02:59.757Z,102476.91
2023-05-23T10:05:48.020Z,102471.22
2023-05-23T10:08:36.698Z,102476.63
2023-05-23T10:11:26.382Z,102481.75
2023-05-23T10:13:53.728Z,102476.03
2023-05-23T10:17:11.997Z,102474.06
2023-05-23T10:19:47.502Z,102480.88
2023-05-23T10:22:15.831Z,102489.81
2023-05-23T10:24:44.776Z,102484.41
2023-05-23T10:27:11.788Z,102489.75
2023-05-23T10:29:38.765Z,102488.00
2023-05-23T10:32:06.837Z,102499.53
2023-05-23T10:35:10.683Z,102490.72
2023-05-23T10:37:40.308Z,102493.28
2023-05-23T10:40:38.822Z,102494.25
2023-05-23T10:43:39.152Z,102496.00
2023-05-23T10:46:08.834Z,102494.81
2023-05-23T10:48:41.048Z,102495.69
2023-05-23T10:51:09.414Z,102496.56
2023-05-23T10:53:41.263Z,102492.97
2023-05-23T10:56:09.638Z,102500.97
2023-05-23T10:58:38.698Z,102495.56
2023-05-23T11:01:13.713Z,102497.25
2023-05-23T11:03:46.410Z,102499.94
2023-05-23T11:06:29.673Z,102496.41
2023-05-23T11:09:09.845Z,102502.66
2023-05-23T11:11:54.752Z,102502.66
2023-05-23T11:14:34.288Z,102506.22
2023-05-23T11:17:15.048Z,102508.06
2023-05-23T11:20:08.769Z,102511.63
2023-05-23T11:22:36.590Z,102504.22
2023-05-23T11:25:10.378Z,102493.41
2023-05-23T11:27:39.227Z,102494.09
2023-05-23T11:30:13.659Z,102503.63
2023-05-23T11:32:41.557Z,102499.63
2023-05-23T11:35:11.939Z,102504.03
2023-05-23T11:37:39.676Z,102493.22
2023-05-23T11:40:25.159Z,102494.09
2023-05-23T11:42:54.134Z,102496.47
2023-05-23T11:45:22.215Z,102497.31
2023-05-23T11:47:48.988Z,102493.66
2023-05-23T11:50:16.927Z,102494.34
2023-05-23T11:52:43.671Z,102501.47
2023-05-23T11:55:10.237Z,102487.94
2023-05-23T11:57:39.928Z,102499.63
2023-05-23T12:00:08.918Z,102501.31
2023-05-23T12:02:42.316Z,102506.56
2023-05-23T12:05:13.809Z,102512.81
2023-05-23T12:07:48.771Z,102510.13
2023-05-23T12:10:16.901Z,102505.59
2023-05-23T12:12:44.833Z,102511.97
2023-05-23T12:15:12.452Z,102504.88
2023-05-23T12:17:40.175Z,102508.28
2023-05-23T12:20:07.928Z,102508.13
2023-05-23T12:22:35.053Z,102502.72
2023-05-23T12:25:02.365Z,102508.13
2023-05-23T12:27:31.430Z,102512.41
2023-05-23T12:30:17.252Z,102512.41
2023-05-23T12:32:45.878Z,102510.38
2023-05-23T12:35:14.861Z,102518.66
2023-05-23T12:37:48.521Z,102523.06
2023-05-23T12:40:16.052Z,102522.22
2023-05-23T12:42:56.858Z,102509.38
2023-05-23T12:45:30.868Z,102509.25
2023-05-23T12:47:57.589Z,102517.50
2023-05-23T12:50:24.398Z,102519.34
2023-05-23T12:52:51.501Z,102512.09
2023-05-23T12:55:18.274Z,102510.22
2023-05-23T12:57:44.992Z,102527.34
2023-05-23T13:00:12.548Z,102523.75
2023-05-23T13:02:40.104Z,102518.22
2023-05-23T13:05:07.450Z,102522.78
2023-05-23T13:07:34.489Z,102521.94
2023-05-23T13:10:02.600Z,102523.63
2023-05-23T13:12:29.711Z,102511.97
2023-05-23T13:14:57.950Z,102521.94
2023-05-23T13:17:24.877Z,102524.63
2023-05-23T13:19:51.801Z,102520.91
2023-05-23T13:22:18.572Z,102522.78
2023-05-23T13:24:46.211Z,102527.19
2023-05-23T13:27:13.044Z,102519.06
2023-05-23T13:29:40.012Z,102533.44
2023-05-23T13:32:07.040Z,102527.19
2023-05-23T13:34:37.297Z,102535.13
2023-05-23T13:37:04.973Z,102533.28
2023-05-23T13:39:31.870Z,102532.31
2023-05-23T13:41:59.115Z,102539.69
2023-05-23T13:44:25.809Z,102530.56
2023-05-23T13:46:52.752Z,102533.28
2023-05-23T13:49:19.505Z,102525.03
2023-05-23T13:51:46.244Z,102529.59
2023-05-23T13:54:14.071Z,102539.41
2023-05-23T13:56:41.152Z,102524.88
2023-05-23T13:59:07.851Z,102527.59
2023-05-23T14:01:34.657Z,102529.44
2023-05-23T14:04:01.588Z,102529.44
2023-05-23T14:06:28.394Z,102529.44
2023-05-23T14:08:56.031Z,102521.31
2023-05-23T14:11:22.778Z,102523.88
2023-05-23T14:13:49.546Z,102532.16
2023-05-23T14:16:16.465Z,102523.03
2023-05-23T14:18:43.786Z,102524.88
2023-05-23T14:21:10.791Z,102522.03
2023-05-23T14:23:37.404Z,102522.03
2023-05-23T14:26:04.449Z,102515.75
2023-05-23T14:28:31.619Z,102514.91
2023-05-23T14:30:59.267Z,102521.16
2023-05-23T14:33:26.302Z,102526.56
2023-05-23T14:35:53.280Z,102525.72
2023-05-23T14:38:20.397Z,102520.31
2023-05-23T14:40:49.927Z,102524.88
2023-05-23T14:43:17.172Z,102525.72
2023-05-23T14:45:44.059Z,102531.13
2023-05-23T14:48:11.692Z,102536.72
2023-05-23T14:50:40.987Z,102533.00
2023-05-23T14:53:07.708Z,102530.44
2023-05-23T14:55:34.552Z,102538.56
2023-05-23T14:58:01.572Z,102537.56
2023-05-23T15:00:28.648Z,102527.75
2023-05-23T15:02:55.823Z,102538.56
2023-05-23T15:05:22.451Z,102543.13
2023-05-23T15:07:49.372Z,102543.13
2023-05-23T15:10:16.485Z,102541.28
2023-05-23T15:12:43.977Z,102549.38
2023-05-23T15:15:11.506Z,102547.69
2023-05-23T15:17:38.266Z,102550.53
2023-05-23T15:20:07.211Z,102555.09
2023-05-23T15:22:39.512Z,102556.78
2023-05-23T15:25:08.305Z,102560.50
2023-05-23T15:27:35.099Z,102545.97
2023-05-23T15:30:02.522Z,102550.53
2023-05-23T15:32:29.529Z,102553.09
2023-05-23T15:34:56.485Z,102543.25
2023-05-23T15:37:24.249Z,102543.25
2023-05-23T15:39:51.175Z,102548.66
2023-05-23T15:42:20.429Z,102545.97
2023-05-23T15:44:47.138Z,102553.09
2023-05-23T15:47:15.274Z,102555.81
2023-05-23T15:49:41.921Z,102554.09
2023-05-23T15:52:09.056Z,102550.69
2023-05-23T15:54:35.720Z,102559.81
2023-05-23T15:57:02.450Z,102559.09
2023-05-23T15:59:29.112Z,102549.97
2023-05-23T16:01:56.963Z,102557.22
2023-05-23T16:04:24.251Z,102553.53
2023-05-23T16:06:51.765Z,102558.94
2023-05-23T16:09:18.636Z,102558.94
2023-05-23T16:11:45.411Z,102555.38
2023-05-23T16:14:12.122Z,102562.66
2023-05-23T16:16:38.881Z,102554.53
2023-05-23T16:19:06.054Z,102551.97
2023-05-23T16:21:33.353Z,102556.66
2023-05-23T16:24:00.438Z,102551.41
2023-05-23T16:26:28.264Z,102554.28
2023-05-23T16:28:54.878Z,102548.16
2023-05-23T16:31:27.154Z,102546.44
2023-05-23T16:33:54.106Z,102551.13
2023-05-23T16:36:21.105Z,102548.72
2023-05-23T16:38:48.255Z,102550.91
2023-05-23T16:41:18.245Z,102551.19
2023-05-23T16:43:44.969Z,102548.59
2023-05-23T16:46:11.869Z,102559.41
2023-05-23T16:48:38.528Z,102559.41
2023-05-23T16:51:06.383Z,102557.72
2023-05-23T16:53:33.220Z,102551.31
2023-05-23T16:55:59.914Z,102563.00
2023-05-23T16:58:29.598Z,102553.16
2023-05-23T17:00:56.648Z,102549.59
2023-05-23T17:03:25.060Z,102555.88
2023-05-23T17:05:54.072Z,102556.03
2023-05-23T17:08:20.717Z,102544.34
2023-05-23T17:10:47.529Z,102555.16
2023-05-23T17:13:14.302Z,102552.47
2023-05-23T17:15:41.213Z,102558.00
2023-05-23T17:18:08.159Z,102548.34
2023-05-23T17:20:34.858Z,102553.88
2023-05-23T17:23:01.547Z,102558.44
2023-05-23T17:25:28.528Z,102556.75
2023-05-23T17:27:56.897Z,102559.44
2023-05-23T17:30:23.669Z,102559.44
2023-05-23T17:32:50.502Z,102561.31
2023-05-23T17:35:17.458Z,102567.72
2023-05-23T17:37:44.954Z,102563.28
2023-05-23T17:40:12.887Z,102577.69
2023-05-23T17:42:40.823Z,102569.56
2023-05-23T17:45:09.813Z,102575.09
2023-05-23T17:47:37.299Z,102576.09
2023-05-23T17:50:05.004Z,102568.25
2023-05-23T17:52:33.493Z,102569.41
2023-05-23T17:55:00.622Z,102569.53
2023-05-23T17:57:31.310Z,102567.84
2023-05-23T17:59:59.303Z,102572.50
2023-05-23T18:02:27.183Z,102574.38
2023-05-23T18:04:54.631Z,102574.53
2023-05-23T18:07:21.300Z,102589.03
2023-05-23T18:09:49.127Z,102580.06
2023-05-23T18:12:16.690Z,102577.50
2023-05-23T18:14:44.484Z,102579.50
2023-05-23T18:17:14.176Z,102567.97
2023-05-23T18:19:42.267Z,102576.25
2023-05-23T18:22:10.168Z,102571.81
2023-05-23T18:24:37.593Z,102577.38
2023-05-23T18:27:15.973Z,102577.66
2023-05-23T18:29:44.199Z,102584.06
2023-05-23T18:32:13.126Z,102586.06
2023-05-23T18:34:40.154Z,102582.63
2023-05-23T18:37:07.101Z,102585.47
2023-05-23T18:39:34.038Z,102587.34
2023-05-23T18:42:00.900Z,102580.50
2023-05-23T18:44:28.709Z,102586.88
2023-05-23T18:46:56.717Z,102587.88
2023-05-23T18:49:23.569Z,102585.47
2023-05-23T18:51:51.888Z,102585.63
2023-05-23T18:54:18.852Z,102585.88
2023-05-23T18:56:48.662Z,102593.28
2023-05-23T18:59:16.932Z,102589.88
2023-05-23T19:01:43.745Z,102596.38
2023-05-23T19:04:12.359Z,102607.34
2023-05-23T19:06:39.230Z,102605.78
2023-05-23T19:09:10.212Z,102618.56
2023-05-23T19:11:42.507Z,102614.28
2023-05-23T19:14:10.339Z,102609.91
2023-05-23T19:16:38.032Z,102606.50
2023-05-23T19:19:06.259Z,102612.88
2023-05-23T19:21:34.474Z,102612.28
2023-05-23T19:24:02.371Z,102619.69
2023-05-23T19:26:30.523Z,102605.44
2023-05-23T19:29:10.141Z,102612.84
2023-05-23T19:31:37.980Z,102609.41
2023-05-23T19:34:06.550Z,102613.13
2023-05-23T19:36:33.765Z,102616.78
2023-05-23T19:39:01.443Z,102607.97
2023-05-23T19:41:32.659Z,102623.47
2023-05-23T19:43:59.882Z,102627.16
2023-05-23T19:46:29.036Z,102627.28
2023-05-23T19:49:00.032Z,102630.97
2023-05-23T19:51:27.414Z,102641.03
2023-05-23T19:53:55.053Z,102643.88
2023-05-23T19:56:25.945Z,102652.13
2023-05-23T19:58:52.671Z,102654.94
2023-05-23T20:01:19.373Z,102665.91
2023-05-23T20:03:46.152Z,102660.66
2023-05-23T20:06:13.512Z,102667.88
2023-05-23T20:08:40.400Z,102660.91
2023-05-23T20:11:10.995Z,102670.00
2023-05-23T20:13:39.113Z,102662.88
2023-05-23T20:16:08.037Z,102672.97
2023-05-23T20:18:36.399Z,102670.38
2023-05-23T20:21:05.369Z,102660.59
2023-05-23T20:23:32.226Z,102664.13
2023-05-23T20:26:03.517Z,102666.13
2023-05-23T20:28:31.886Z,102655.44
2023-05-23T20:30:59.938Z,102656.44
2023-05-23T20:33:26.813Z,102650.19
2023-05-23T20:35:53.997Z,102646.75
2023-05-23T20:38:20.681Z,102648.63
2023-05-23T20:40:52.787Z,102642.38
2023-05-23T20:43:22.232Z,102642.50
2023-05-23T20:45:49.940Z,102649.75
2023-05-23T20:48:17.041Z,102646.31
2023-05-23T20:50:44.682Z,102640.91
2023-05-23T20:53:11.914Z,102641.06
2023-05-23T20:55:38.886Z,102648.31
2023-05-23T20:58:07.390Z,102640.34
2023-05-23T21:00:35.990Z,102641.31
2023-05-23T21:03:03.053Z,102648.56
2023-05-23T21:05:29.803Z,102658.63
2023-05-23T21:07:56.543Z,102653.22
2023-05-23T21:10:24.601Z,102656.94
2023-05-23T21:12:51.712Z,102656.06
2023-05-23T21:15:19.059Z,102652.69
2023-05-23T21:17:47.062Z,102657.19
2023-05-23T21:20:14.011Z,102657.19
2023-05-23T21:22:41.231Z,102661.88
2023-05-23T21:25:08.304Z,102654.78
2023-05-23T21:27:34.981Z,102649.38
2023-05-23T21:30:05.670Z,102669.25
2023-05-23T21:32:33.046Z,102660.28
2023-05-23T21:34:59.835Z,102650.50
2023-05-23T21:37:26.764Z,102644.25
2023-05-23T21:39:53.646Z,102645.25
2023-05-23T21:42:20.972Z,102648.91
2023-05-23T21:44:48.156Z,102643.50
2023-05-23T21:47:14.953Z,102633.84
2023-05-23T21:49:41.659Z,102645.50
2023-05-23T21:52:08.328Z,102645.63
2023-05-23T21:54:35.089Z,102641.22
2023-05-23T21:57:01.843Z,102650.16
2023-05-23T21:59:28.677Z,102650.31
2023-05-23T22:01:55.589Z,102657.53
2023-05-23T22:04:22.289Z,102645.91
2023-05-23T22:06:49.077Z,102655.84
2023-05-23T22:09:15.855Z,102655.97
2023-05-23T22:11:43.134Z,102649.72
2023-05-23T22:14:10.323Z,102652.41
2023-05-23T22:16:40.548Z,102634.53
2023-05-23T22:19:09.882Z,102649.97
2023-05-23T22:21:36.909Z,102650.81
2023-05-23T22:24:03.820Z,102643.72
2023-05-23T22:26:30.746Z,102641.16
2023-05-23T22:28:57.484Z,102644.72
2023-05-23T22:31:24.459Z,102638.47
2023-05-23T22:33:51.412Z,102641.28
2023-05-23T22:36:18.326Z,102640.44
2023-05-23T22:38:45.732Z,102642.28
2023-05-23T22:41:12.352Z,102635.19
2023-05-23T22:43:39.097Z,102650.50
2023-05-23T22:46:06.248Z,102650.50
2023-05-23T22:48:33.629Z,102648.81
2023-05-23T22:51:02.079Z,102658.72
2023-05-23T22:53:29.297Z,102647.06
2023-05-23T22:55:56.115Z,102651.63
2023-05-23T22:58:22.693Z,102648.06
2023-05-23T23:00:49.311Z,102645.38
2023-05-23T23:03:16.180Z,102644.63
2023-05-23T23:05:42.997Z,102647.34
2023-05-23T23:08:09.629Z,102642.78
2023-05-23T23:10:36.288Z,102639.34
2023-05-23T23:13:03.301Z,102641.19
2023-05-23T23:15:30.196Z,102635.81
2023-05-23T23:17:57.276Z,102634.09
2023-05-23T23:20:24.020Z,102641.34
2023-05-23T23:22:50.779Z,102648.59
2023-05-23T23:25:18.988Z,102645.00
2023-05-23T23:27:45.660Z,102647.00
2023-05-23T23:30:12.547Z,102640.84
2023-05-23T23:32:39.158Z,102641.84
2023-05-23T23:35:06.267Z,102647.38
2023-05-23T23:37:33.060Z,102639.28
2023-05-23T23:39:59.620Z,102637.56
2023-05-23T23:42:26.554Z,102628.63
2023-05-23T23:44:53.134Z,102629.63
2023-05-23T23:47:19.705Z,102637.84
2023-05-23T23:49:46.230Z,102632.44
2023-05-23T23:52:12.867Z,102624.47
2023-05-23T23:54:39.459Z,102623.63
2023-05-23T23:57:06.750Z,102619.22
2023-05-23T23:59:33.322Z,102620.22
